Time;durP1;ratioP1;P1;durP2;ratioP2;P2;SDS_P1;SDS_P2;PMS_P1;PMS_P2;Temp;Humidity;BMP_temperature;BMP_pressure;BME280_temperature;BME280_humidity;BME280_pressure;Samples;Min_cycle;Max_cycle;Signal;HPM_P1;HPM_P2
2021/12/11 00:01:53;;;;;;;43.15;17.20;;;;;;;5.28;65.01;97608.06;4486207;31;20391;-82
2021/12/11 00:04:29;;;;;;;41.40;16.62;;;;;;;5.34;65.15;97611.28;4486319;31;20375;-85
2021/12/11 00:06:56;;;;;;;40.12;16.87;;;;;;;5.33;65.27;97615.63;4485310;32;20136;-89
2021/12/11 00:09:24;;;;;;;44.35;17.60;;;;;;;5.24;65.54;97616.97;4486972;32;20459;-85
2021/12/11 00:12:07;;;;;;;40.92;16.92;;;;;;;5.22;64.83;97621.44;4488013;32;20186;-86
2021/12/11 00:14:35;;;;;;;39.47;15.95;;;;;;;5.17;64.69;97625.19;4488156;31;20428;-85
2021/12/11 00:17:01;;;;;;;43.60;17.83;;;;;;;5.12;64.62;97628.91;4488075;31;20090;-86
2021/12/11 00:19:29;;;;;;;39.58;16.48;;;;;;;5.13;64.74;97627.97;4488073;31;20154;-86
2021/12/11 00:22:07;;;;;;;44.35;17.35;;;;;;;5.17;64.74;97628.66;4488057;31;20088;-84
2021/12/11 00:24:35;;;;;;;40.05;17.65;;;;;;;5.17;64.85;97638.25;4488116;31;20493;-84
2021/12/11 00:27:04;;;;;;;42.95;17.50;;;;;;;5.16;65.01;97633.94;4487971;31;20080;-84
2021/12/11 00:29:31;;;;;;;44.00;16.58;;;;;;;5.23;64.84;97645.78;4487022;32;20160;-84
2021/12/11 00:31:59;;;;;;;43.90;16.62;;;;;;;5.24;64.60;97644.84;4487977;31;20204;-84
2021/12/11 00:34:25;;;;;;;43.72;17.17;;;;;;;5.20;64.78;97654.59;4487910;31;20188;-84
2021/12/11 00:36:58;;;;;;;41.80;16.85;;;;;;;5.26;64.63;97651.69;4486658;32;20421;-84
2021/12/11 00:39:24;;;;;;;37.80;15.23;;;;;;;5.20;65.00;97659.00;4487787;31;20111;-85
2021/12/11 00:41:55;;;;;;;40.38;16.12;;;;;;;5.18;64.92;97664.28;4486648;32;20112;-83
2021/12/11 00:44:59;;;;;;;37.10;15.98;;;;;;;5.22;65.16;97665.81;4487847;31;20749;-83
2021/12/11 00:47:45;;;;;;;40.70;15.68;;;;;;;5.24;65.71;97673.59;4487656;32;20111;-84
2021/12/11 00:50:13;;;;;;;40.17;15.65;;;;;;;5.28;65.06;97673.34;4486743;32;20119;-84
2021/12/11 00:52:51;;;;;;;39.87;16.30;;;;;;;5.23;65.40;97679.72;4487555;31;20119;-84
2021/12/11 00:55:27;;;;;;;47.78;18.05;;;;;;;5.28;65.57;97696.00;4487712;31;20103;-84
2021/12/11 00:58:13;;;;;;;43.17;17.12;;;;;;;5.35;65.62;97694.78;4486645;32;20821;-84
2021/12/11 01:01:04;;;;;;;39.30;16.23;;;;;;;5.34;65.36;97713.13;4486427;32;20475;-84
2021/12/11 01:03:47;;;;;;;41.37;16.62;;;;;;;5.39;64.73;97711.97;4487676;31;20096;-84
2021/12/11 01:06:21;;;;;;;40.10;16.95;;;;;;;5.38;64.42;97717.25;4486646;31;20111;-84
2021/12/11 01:08:55;;;;;;;39.90;15.57;;;;;;;5.40;64.52;97712.81;4487626;31;20107;-84
2021/12/11 01:11:25;;;;;;;37.30;16.20;;;;;;;5.47;63.94;97706.34;4487214;31;20085;-84
2021/12/11 01:14:15;;;;;;;42.08;17.17;;;;;;;5.50;63.75;97709.66;4487583;31;20509;-84
2021/12/11 01:16:43;;;;;;;39.65;16.00;;;;;;;5.47;64.09;97714.19;4486545;32;20346;-84
2021/12/11 01:19:16;;;;;;;;;;;;;;;5.45;64.31;97716.03;4473382;32;20081;-84
2021/12/11 01:21:56;;;;;;;42.20;16.42;;;;;;;5.49;64.48;97710.56;4487580;31;19989;-84
2021/12/11 01:24:56;;;;;;;39.03;15.40;;;;;;;5.45;64.61;97719.50;4487512;31;20565;-84
2021/12/11 01:27:16;;;;;;;37.97;15.75;;;;;;;5.48;64.73;97715.88;4483279;32;20111;-84
2021/12/11 01:29:50;;;;;;;41.60;16.42;;;;;;;5.51;64.73;97711.34;4487502;31;20089;-83
2021/12/11 01:32:16;;;;;;;42.70;16.37;;;;;;;5.49;64.77;97712.34;4486154;32;20508;-83
2021/12/11 01:34:44;;;;;;;40.78;15.68;;;;;;;5.46;64.55;97713.31;4473153;32;20113;-83
2021/12/11 01:37:10;;;;;;;42.03;15.38;;;;;;;5.45;64.58;97719.50;4486305;32;20159;-82
2021/12/11 01:39:37;;;;;;;41.60;15.65;;;;;;;5.46;64.50;97712.50;4487305;31;20447;-83
2021/12/11 01:42:09;;;;;;;41.53;16.05;;;;;;;5.43;64.29;97704.84;4487373;31;20120;-83
2021/12/11 01:44:36;;;;;;;42.25;16.73;;;;;;;5.46;64.17;97715.94;4487302;31;20107;-83
2021/12/11 01:47:18;;;;;;;42.22;16.65;;;;;;;5.48;64.09;97719.31;4487241;31;20088;-83
2021/12/11 01:49:48;;;;;;;40.50;16.05;;;;;;;5.50;64.11;97732.31;4487312;31;20573;-83
2021/12/11 01:52:19;;;;;;;40.75;16.40;;;;;;;5.51;64.19;97728.78;4486218;32;20108;-84
2021/12/11 01:54:48;;;;;;;41.25;15.45;;;;;;;5.51;64.17;97728.78;4487359;31;20108;-83
2021/12/11 01:57:22;;;;;;;38.83;14.82;;;;;;;5.50;64.33;97737.53;4487354;31;20452;-83
2021/12/11 01:59:53;;;;;;;40.83;15.60;;;;;;;5.48;64.36;97737.59;4486077;32;20118;-83
2021/12/11 02:02:32;;;;;;;35.03;13.70;;;;;;;5.55;64.15;97737.31;4486208;32;20100;-83
2021/12/11 02:04:57;;;;;;;44.40;16.60;;;;;;;5.55;64.30;97730.31;4486946;31;20096;-83
2021/12/11 02:07:26;;;;;;;41.72;15.15;;;;;;;5.62;63.97;97733.44;4486202;32;20107;-83
2021/12/11 02:09:57;;;;;;;43.95;16.33;;;;;;;5.66;63.88;97725.38;4487125;31;20088;-83
2021/12/11 02:12:34;;;;;;;40.25;14.63;;;;;;;5.74;63.57;97721.50;4486053;32;20085;-83
2021/12/11 02:15:02;;;;;;;37.40;15.13;;;;;;;5.72;63.56;97726.84;4487239;31;20138;-83
2021/12/11 02:17:40;;;;;;;40.38;15.35;;;;;;;5.73;63.46;97723.28;4487209;31;20454;-83
2021/12/11 02:20:12;;;;;;;38.97;15.10;;;;;;;5.71;63.32;97718.12;4487220;31;20084;-83
2021/12/11 02:22:45;;;;;;;38.72;14.35;;;;;;;5.72;63.42;97719.84;4484649;32;20147;-83
2021/12/11 02:25:21;;;;;;;40.95;15.82;;;;;;;5.78;63.02;97710.84;4487122;31;20088;-83
2021/12/11 02:27:58;;;;;;;41.85;16.50;;;;;;;5.84;63.06;97720.97;4487057;31;20526;-83
2021/12/11 02:30:44;;;;;;;40.53;15.10;;;;;;;5.79;63.26;97720.34;4486964;31;20476;-82
2021/12/11 02:33:10;;;;;;;39.75;14.70;;;;;;;5.85;63.28;97730.50;4487160;31;20101;-83
2021/12/11 02:35:50;;;;;;;36.88;15.52;;;;;;;5.82;63.45;97722.81;4486917;31;20104;-82
2021/12/11 02:38:21;;;;;;;35.13;14.20;;;;;;;5.83;63.15;97710.56;4486992;31;20106;-83
2021/12/11 02:40:58;;;;;;;38.67;14.30;;;;;;;5.89;62.96;97711.12;4486909;31;20085;-84
2021/12/11 02:43:27;;;;;;;37.63;13.80;;;;;;;5.88;62.82;97705.97;4485783;32;20108;-84
2021/12/11 02:46:25;;;;;;;33.15;14.57;;;;;;;5.69;62.86;97706.91;4485579;32;20112;-83
2021/12/11 02:48:59;;;;;;;37.47;14.50;;;;;;;5.72;62.68;97709.38;4483734;32;20088;-83
2021/12/11 02:51:30;;;;;;;34.72;13.23;;;;;;;5.65;62.72;97707.16;4487020;31;20084;-83
2021/12/11 02:54:00;;;;;;;35.58;13.55;;;;;;;5.42;63.15;97709.19;4486836;32;20091;-83
2021/12/11 02:56:54;;;;;;;36.97;14.73;;;;;;;5.42;63.29;97711.78;4459751;32;20122;-83
2021/12/11 02:59:26;;;;;;;35.17;13.57;;;;;;;5.48;63.48;97706.25;4485936;32;20447;-83
2021/12/11 03:02:05;;;;;;;38.95;15.40;;;;;;;5.44;63.63;97711.72;4485689;32;20080;-83
2021/12/11 03:04:38;;;;;;;38.10;14.20;;;;;;;5.23;64.29;97714.50;4485893;32;20745;-83
2021/12/11 03:07:07;;;;;;;35.50;13.60;;;;;;;5.17;64.07;97699.13;4486859;31;20143;-82
2021/12/11 03:09:37;;;;;;;37.35;14.57;;;;;;;5.15;63.97;97700.16;4485868;32;20111;-81
2021/12/11 03:12:06;;;;;;;36.00;14.55;;;;;;;5.17;64.25;97700.91;4486994;32;20456;-81
2021/12/11 03:14:32;;;;;;;36.53;14.82;;;;;;;4.73;65.30;97697.81;4485716;32;20101;-82
2021/12/11 03:16:58;;;;;;;36.33;13.82;;;;;;;4.99;64.91;97700.91;4486782;31;20352;-79
2021/12/11 03:19:26;;;;;;;36.33;14.45;;;;;;;4.67;66.13;97705.06;4485494;32;20097;-81
2021/12/11 03:21:53;;;;;;;38.15;13.73;;;;;;;4.78;65.55;97710.62;4486921;31;20095;-82
2021/12/11 03:24:19;;;;;;;41.33;17.00;;;;;;;4.76;65.74;97709.03;4486788;31;20161;-81
2021/12/11 03:26:49;;;;;;;35.00;13.75;;;;;;;4.74;65.84;97724.75;4485547;32;20171;-81
2021/12/11 03:29:14;;;;;;;38.53;15.23;;;;;;;4.88;65.60;97737.13;4485501;32;20447;-81
2021/12/11 03:31:40;;;;;;;34.85;13.25;;;;;;;5.01;65.20;97738.22;4486563;31;20096;-82
2021/12/11 03:34:13;;;;;;;34.78;13.27;;;;;;;4.87;65.45;97741.50;4487167;31;20092;-81
2021/12/11 03:36:40;;;;;;;35.90;12.73;;;;;;;4.93;65.32;97737.75;4488595;31;20456;-81
2021/12/11 03:39:15;;;;;;;36.92;14.50;;;;;;;5.04;65.06;97751.13;4488560;31;20084;-81
2021/12/11 03:41:44;;;;;;;34.95;13.07;;;;;;;5.15;64.55;97761.03;4487452;32;20084;-82
2021/12/11 03:44:10;;;;;;;33.92;13.98;;;;;;;5.10;64.46;97773.47;4487386;32;20147;-82
2021/12/11 03:46:37;;;;;;;36.60;14.80;;;;;;;4.96;64.78;97775.91;4488416;31;20088;-82
2021/12/11 03:49:07;;;;;;;33.45;12.63;;;;;;;5.01;64.66;97771.31;4488189;31;20114;-82
2021/12/11 03:51:35;;;;;;;36.50;14.38;;;;;;;4.88;65.13;97771.88;4473902;32;20088;-82
2021/12/11 03:54:03;;;;;;;37.80;13.15;;;;;;;5.12;64.50;97777.69;4488185;31;20139;-82
2021/12/11 03:56:29;;;;;;;27.65;9.02;;;;;;;5.23;64.11;97777.16;4488167;31;20431;-81
2021/12/11 03:58:55;;;;;;;29.10;10.55;;;;;;;5.18;64.04;97770.50;4488063;31;20118;-81
2021/12/11 04:01:24;;;;;;;30.55;11.50;;;;;;;5.31;63.68;97772.41;4488192;31;20402;-80
2021/12/11 04:03:52;;;;;;;33.72;12.40;;;;;;;5.33;63.13;97764.50;4487004;32;20108;-81
2021/12/11 04:06:18;;;;;;;33.70;12.95;;;;;;;5.22;63.48;97761.59;4487821;32;20596;-81
2021/12/11 04:08:45;;;;;;;31.15;12.07;;;;;;;4.75;65.10;97773.38;4486990;32;20164;-81
2021/12/11 04:11:28;;;;;;;31.67;12.43;;;;;;;5.06;64.34;97764.09;4486766;32;20079;-81
2021/12/11 04:13:58;;;;;;;30.50;11.12;;;;;;;5.08;64.23;97768.31;4486824;32;20154;-83
2021/12/11 04:16:23;;;;;;;28.08;10.45;;;;;;;4.91;64.25;97769.13;4473768;32;20100;-83
2021/12/11 04:18:49;;;;;;;29.23;10.70;;;;;;;5.05;63.38;97776.28;4487962;31;20187;-83
2021/12/11 04:21:15;;;;;;;27.20;9.60;;;;;;;5.02;63.31;97773.84;4488014;31;20096;-83
2021/12/11 04:23:41;;;;;;;27.95;11.10;;;;;;;4.90;63.82;97766.59;4488059;31;20460;-83
2021/12/11 04:26:08;;;;;;;25.85;9.70;;;;;;;4.91;63.75;97771.75;4486679;32;20396;-84
2021/12/11 04:28:36;;;;;;;26.95;10.13;;;;;;;4.68;64.29;97777.22;4473828;32;20395;-83
2021/12/11 04:31:06;;;;;;;26.15;9.80;;;;;;;4.79;64.05;97780.16;4486797;32;20136;-83
2021/12/11 04:33:39;;;;;;;23.92;8.27;;;;;;;4.75;64.04;97777.75;4487939;32;20100;-82
2021/12/11 04:36:08;;;;;;;24.58;8.80;;;;;;;4.30;65.11;97777.22;4487953;31;20104;-83
2021/12/11 04:38:34;;;;;;;25.95;9.35;;;;;;;4.49;64.74;97791.09;4487883;31;20106;-83
2021/12/11 04:41:01;;;;;;;22.10;8.35;;;;;;;4.36;65.27;97795.19;4487749;31;20085;-83
2021/12/11 04:43:27;;;;;;;26.33;9.13;;;;;;;4.32;64.64;97788.41;4486812;32;20183;-82
2021/12/11 04:45:59;;;;;;;21.00;7.95;;;;;;;4.34;65.14;97781.38;4486862;32;20159;-83
2021/12/11 04:49:27;;;;;;;26.62;8.70;;;;;;;4.18;65.65;97796.03;4487833;31;20111;-82
2021/12/11 04:51:34;;;;;;;24.83;9.07;;;;;;;4.14;65.57;97801.38;4483438;32;20107;-82
2021/12/11 05:01:54;;;;;;;25.12;8.68;;;;;;;4.50;64.48;97800.63;4487785;31;20446;-82
2021/12/11 05:07:31;;;;;;;25.45;8.93;;;;;;;4.45;64.83;97805.19;4454152;32;20166;-81
2021/12/11 05:10:12;;;;;;;23.48;8.48;;;;;;;4.24;65.43;97819.22;4454424;32;20175;-83
2021/12/11 05:12:38;;;;;;;27.10;9.93;;;;;;;4.31;65.37;97818.03;4448343;32;20128;-83
2021/12/11 05:15:20;;;;;;;25.65;9.48;;;;;;;4.46;65.47;97813.87;4452080;32;20101;-81
2021/12/11 05:17:46;;;;;;;25.67;10.10;;;;;;;4.51;65.36;97833.59;4452638;32;20154;-81
2021/12/11 05:20:14;;;;;;;28.40;9.45;;;;;;;4.57;65.18;97834.25;4453277;32;20120;-82
2021/12/11 05:22:40;;;;;;;25.58;9.50;;;;;;;4.63;64.94;97823.53;4453360;32;20735;-81
2021/12/11 05:25:07;;;;;;;26.40;9.95;;;;;;;4.55;65.05;97825.66;4440993;32;20171;-80
2021/12/11 05:27:33;;;;;;;27.15;10.15;;;;;;;4.56;65.08;97832.53;4441169;32;20109;-82
2021/12/11 05:29:59;;;;;;;25.08;8.70;;;;;;;4.61;64.63;97833.19;4454101;32;20152;-82
2021/12/11 05:32:26;;;;;;;24.87;9.25;;;;;;;4.43;64.89;97827.06;4441010;32;20115;-82
2021/12/11 05:34:52;;;;;;;23.83;8.82;;;;;;;4.51;64.50;97824.94;4453948;32;20097;-81
2021/12/11 05:37:19;;;;;;;23.05;8.40;;;;;;;4.34;64.57;97828.31;4458931;32;20164;-82
2021/12/11 05:39:45;;;;;;;25.45;8.63;;;;;;;4.29;65.12;97831.13;4487371;32;20451;-81
2021/12/11 05:42:11;;;;;;;23.17;8.68;;;;;;;4.21;65.25;97829.75;4486260;32;20137;-82
2021/12/11 05:44:37;;;;;;;25.90;9.77;;;;;;;4.32;64.80;97832.75;4487527;31;20162;-80
2021/12/11 05:47:03;;;;;;;25.25;9.25;;;;;;;3.97;65.73;97848.16;4473328;32;20126;-81
2021/12/11 05:49:30;;;;;;;26.48;9.00;;;;;;;4.04;65.78;97846.16;4486592;32;20520;-81
2021/12/11 05:51:57;;;;;;;26.58;9.10;;;;;;;3.55;66.91;97849.06;4487678;31;20152;-81
2021/12/11 05:54:25;;;;;;;23.15;8.82;;;;;;;3.94;66.12;97849.16;4487568;31;20443;-81
2021/12/11 05:56:53;;;;;;;;;;;;;;;4.09;65.92;97857.22;4486501;32;20143;-81
2021/12/11 05:59:19;;;;;;;24.15;8.88;;;;;;;4.09;66.09;97858.06;4487607;31;19991;-81
2021/12/11 06:01:55;;;;;;;26.58;9.68;;;;;;;3.57;67.75;97865.47;4486334;32;20352;-78
2021/12/11 06:04:26;;;;;;;24.92;9.27;;;;;;;3.76;67.62;97857.75;4487407;31;20152;-78
2021/12/11 06:06:53;;;;;;;22.85;7.82;;;;;;;3.91;67.24;97879.69;4483854;31;20109;-79
2021/12/11 06:09:22;;;;;;;23.83;8.45;;;;;;;3.88;66.75;97882.44;4486928;31;20603;-78
2021/12/11 06:11:51;;;;;;;28.95;9.63;;;;;;;3.75;66.98;97889.94;4486225;31;20510;-78
2021/12/11 06:14:18;;;;;;;25.83;10.15;;;;;;;4.01;66.30;97890.59;4487096;31;20100;-76
2021/12/11 06:16:45;;;;;;;24.83;7.97;;;;;;;4.22;65.87;97900.09;4486808;31;20241;-77
2021/12/11 06:19:10;;;;;;;22.43;7.90;;;;;;;3.88;66.62;97916.28;4485980;32;20093;-79
2021/12/11 06:21:36;;;;;;;24.90;8.88;;;;;;;3.78;66.70;97909.78;4486905;32;20208;-77
2021/12/11 06:24:03;;;;;;;26.73;9.32;;;;;;;4.05;66.02;97924.25;4487091;31;20106;-78
2021/12/11 06:26:28;;;;;;;23.85;8.45;;;;;;;4.19;65.38;97922.81;4485725;32;20092;-78
2021/12/11 06:28:54;;;;;;;22.23;8.57;;;;;;;4.24;65.37;97928.69;4486565;31;20111;-78
2021/12/11 06:31:20;;;;;;;23.20;8.07;;;;;;;4.40;64.94;97934.09;4486859;31;20068;-79
2021/12/11 06:33:51;;;;;;;22.95;8.40;;;;;;;4.42;64.87;97946.16;4485673;32;20859;-78
2021/12/11 06:36:20;;;;;;;23.38;8.07;;;;;;;4.50;64.24;97954.50;4486724;31;20131;-78
2021/12/11 06:38:48;;;;;;;25.65;9.20;;;;;;;4.52;64.27;97962.28;4472621;32;20153;-79
2021/12/11 06:41:14;;;;;;;;;;;;;;;4.57;64.03;97975.94;4486628;31;20089;-78
2021/12/11 06:43:40;;;;;;;23.33;7.35;;;;;;;4.50;63.92;97980.59;4486921;31;20312;-78
2021/12/11 06:46:06;;;;;;;21.48;7.72;;;;;;;4.62;63.31;97979.22;4486872;32;20137;-76
2021/12/11 06:48:32;;;;;;;22.42;8.13;;;;;;;4.66;63.62;97980.78;4485611;32;20096;-80
2021/12/11 06:50:59;;;;;;;21.98;7.75;;;;;;;4.47;63.58;97985.94;4473435;32;20455;-81
2021/12/11 06:53:38;;;;;;;22.45;7.78;;;;;;;4.50;63.73;97980.59;4471183;32;20558;-80
2021/12/11 06:56:04;;;;;;;21.40;8.38;;;;;;;4.34;63.78;97993.41;4470079;32;20101;-80
2021/12/11 06:58:31;;;;;;;20.58;8.00;;;;;;;4.27;64.35;97988.56;4471139;32;20103;-88
2021/12/11 07:00:57;;;;;;;23.45;8.40;;;;;;;4.21;64.60;97992.25;4470207;32;20566;-79
2021/12/11 07:03:23;;;;;;;23.40;9.23;;;;;;;4.34;64.28;98005.59;4471297;32;20096;-77
2021/12/11 07:05:48;;;;;;;24.80;8.65;;;;;;;3.74;66.13;98005.44;4469979;32;20105;-80
2021/12/11 07:08:16;;;;;;;25.33;9.20;;;;;;;4.02;65.53;98010.41;4469461;32;20088;-79
2021/12/11 07:10:44;;;;;;;24.98;8.02;;;;;;;4.37;64.72;98010.72;4470010;32;20690;-79
2021/12/11 07:13:13;;;;;;;24.63;8.30;;;;;;;4.39;64.33;98021.91;4470095;32;20173;-79
2021/12/11 07:15:39;;;;;;;24.63;8.85;;;;;;;4.46;63.93;98027.72;4469686;32;20586;-81
2021/12/11 07:18:05;;;;;;;22.20;8.55;;;;;;;4.49;64.06;98043.25;4469651;32;20194;-78
2021/12/11 07:20:30;;;;;;;23.20;8.55;;;;;;;4.53;64.16;98048.25;4470916;32;20462;-79
2021/12/11 07:22:56;;;;;;;19.05;7.80;;;;;;;4.64;63.96;98060.84;4470841;32;20093;-77
2021/12/11 07:25:44;;;;;;;17.27;6.95;;;;;;;4.66;63.14;98066.03;4469524;32;20123;-80
2021/12/11 07:28:11;;;;;;;17.70;6.68;;;;;;;4.84;62.41;98069.59;4471046;32;20115;-82
2021/12/11 07:30:41;;;;;;;15.18;5.12;;;;;;;4.57;62.39;98072.44;4469598;32;20129;-82
2021/12/11 07:33:08;;;;;;;16.48;5.72;;;;;;;4.77;61.36;98076.84;4470708;32;20097;-82
2021/12/11 07:35:35;;;;;;;17.47;6.37;;;;;;;4.71;61.18;98082.31;4470710;32;20241;-82
2021/12/11 07:38:01;;;;;;;18.30;6.00;;;;;;;4.83;61.46;98087.03;4470713;32;20194;-80
2021/12/11 07:40:30;;;;;;;16.23;5.40;;;;;;;4.91;61.70;98089.31;4469343;32;20103;-80
2021/12/11 07:42:56;;;;;;;18.12;6.25;;;;;;;5.02;60.90;98088.81;4469448;32;20392;-84
2021/12/11 07:45:23;;;;;;;16.98;6.03;;;;;;;4.77;61.29;98096.84;4469252;32;20125;-81
2021/12/11 07:47:49;;;;;;;19.10;6.70;;;;;;;4.97;60.51;98094.25;4469423;32;20384;-80
2021/12/11 07:50:15;;;;;;;18.70;6.37;;;;;;;5.12;60.05;98093.59;4469294;32;20095;-80
2021/12/11 07:52:41;;;;;;;18.62;6.65;;;;;;;5.13;60.10;98094.44;4470498;32;20364;-80
2021/12/11 07:55:06;;;;;;;16.60;6.20;;;;;;;5.07;60.40;98087.72;4470463;32;20089;-81
2021/12/11 07:57:32;;;;;;;16.50;6.78;;;;;;;4.83;60.74;98094.84;4470317;32;20164;-80
2021/12/11 07:59:58;;;;;;;16.42;5.43;;;;;;;5.00;60.18;98085.44;4470298;32;20073;-80
2021/12/11 08:02:23;;;;;;;15.25;5.15;;;;;;;5.13;60.06;98081.37;4470246;32;20076;-80
2021/12/11 08:04:49;;;;;;;14.93;5.00;;;;;;;5.12;59.92;98083.16;4469109;32;20112;-82
2021/12/11 08:07:14;;;;;;;15.85;5.55;;;;;;;5.06;59.72;98083.44;4470421;32;20137;-83
2021/12/11 08:09:40;;;;;;;19.08;6.50;;;;;;;5.18;59.71;98083.81;4470048;32;20076;-84
2021/12/11 08:12:06;;;;;;;17.23;5.62;;;;;;;5.04;60.29;98082.66;4470213;32;20112;-83
2021/12/11 08:14:32;;;;;;;20.15;5.80;;;;;;;5.17;59.76;98092.53;4469295;32;20157;-83
2021/12/11 08:16:59;;;;;;;17.27;5.37;;;;;;;4.95;60.49;98093.47;4470357;32;20089;-83
2021/12/11 08:19:27;;;;;;;16.37;4.90;;;;;;;4.84;61.23;98106.97;4470416;32;20409;-83
2021/12/11 08:21:56;;;;;;;13.55;4.78;;;;;;;4.65;61.47;98104.28;4472632;32;20115;-83
2021/12/11 08:24:25;;;;;;;15.18;5.12;;;;;;;4.70;61.53;98096.28;4472764;32;20104;-83
2021/12/11 08:26:52;;;;;;;14.27;5.15;;;;;;;4.48;61.70;98110.22;4472297;32;20103;-83
2021/12/11 08:29:18;;;;;;;12.20;4.60;;;;;;;4.80;61.12;98108.03;4472573;32;20565;-83
2021/12/11 08:31:48;;;;;;;14.60;4.57;;;;;;;4.92;60.50;98110.13;4471404;32;20148;-83
2021/12/11 08:34:14;;;;;;;12.95;4.12;;;;;;;4.68;60.97;98108.53;4472597;32;20068;-83
2021/12/11 08:36:40;;;;;;;14.45;4.72;;;;;;;4.83;60.88;98110.50;4471351;32;20141;-83
2021/12/11 08:39:07;;;;;;;14.90;4.22;;;;;;;4.76;60.70;98114.28;4472391;32;20210;-83
2021/12/11 08:41:33;;;;;;;13.65;4.10;;;;;;;5.01;60.55;98118.47;4472412;32;20093;-83
2021/12/11 08:44:04;;;;;;;11.75;3.75;;;;;;;4.83;60.64;98123.56;4472307;32;20097;-83
2021/12/11 08:46:33;;;;;;;12.23;3.85;;;;;;;4.71;60.73;98119.72;4472167;32;20462;-83
2021/12/11 08:49:02;;;;;;;13.75;4.37;;;;;;;4.76;60.40;98126.50;4470921;32;20085;-83
2021/12/11 08:51:35;;;;;;;13.93;4.68;;;;;;;4.84;60.47;98127.00;4472026;32;20180;-83
2021/12/11 08:54:00;;;;;;;13.57;4.30;;;;;;;4.97;60.17;98128.19;4472154;32;20428;-83
2021/12/11 08:56:26;;;;;;;13.57;4.32;;;;;;;4.90;60.31;98129.34;4470938;32;20099;-83
2021/12/11 08:58:52;;;;;;;12.25;4.30;;;;;;;4.83;60.57;98125.28;4472356;32;20424;-83
2021/12/11 09:01:27;;;;;;;13.43;4.50;;;;;;;4.99;60.39;98136.81;4471094;32;20105;-83
2021/12/11 09:03:59;;;;;;;12.70;4.03;;;;;;;5.03;60.07;98132.31;4472133;32;20077;-82
2021/12/11 09:06:36;;;;;;;12.80;4.82;;;;;;;4.91;60.11;98133.69;4471791;32;20481;-83
2021/12/11 09:09:17;;;;;;;12.30;3.92;;;;;;;4.97;60.42;98135.19;4472071;32;20119;-83
2021/12/11 09:11:51;;;;;;;13.68;4.43;;;;;;;4.47;61.37;98146.78;4471959;32;20088;-83
2021/12/11 09:14:26;;;;;;;14.05;4.68;;;;;;;4.72;60.97;98146.63;4470851;32;20376;-83
2021/12/11 09:17:19;;;;;;;12.27;4.15;;;;;;;4.58;61.88;98148.94;4471997;32;20072;-83
2021/12/11 09:19:59;;;;;;;14.05;4.70;;;;;;;4.89;60.90;98149.41;4470782;32;20084;-83
2021/12/11 09:22:33;;;;;;;12.68;4.87;;;;;;;4.60;61.39;98153.22;4472068;32;20077;-83
2021/12/11 09:25:08;;;;;;;13.35;4.00;;;;;;;4.81;61.25;98156.69;4471823;32;20084;-83
2021/12/11 09:27:40;;;;;;;13.88;4.82;;;;;;;4.97;60.85;98153.44;4471965;32;20072;-83
2021/12/11 09:30:38;;;;;;;12.90;4.12;;;;;;;5.02;60.91;98154.09;4457876;32;20102;-83
2021/12/11 09:33:17;;;;;;;13.95;4.78;;;;;;;5.12;60.48;98161.47;4437967;32;20114;-83
2021/12/11 09:36:02;;;;;;;14.93;4.82;;;;;;;5.19;60.33;98156.81;4438339;32;20176;-82
2021/12/11 09:38:42;;;;;;;11.43;3.92;;;;;;;5.22;60.46;98167.16;4438626;32;20157;-83
2021/12/11 09:41:17;;;;;;;12.27;4.40;;;;;;;4.99;61.07;98182.94;4425665;32;20077;-82
2021/12/11 09:44:15;;;;;;;12.35;4.87;;;;;;;4.70;61.72;98182.38;4438465;32;20102;-83
2021/12/11 09:47:03;;;;;;;11.27;3.78;;;;;;;4.77;61.55;98178.63;4438384;32;20109;-83
2021/12/11 09:49:33;;;;;;;12.55;4.37;;;;;;;4.78;61.05;98190.75;4438622;32;20240;-83
2021/12/11 09:52:14;;;;;;;11.10;4.15;;;;;;;4.74;61.11;98189.16;4438736;32;20386;-83
2021/12/11 09:54:40;;;;;;;11.25;3.90;;;;;;;4.85;60.59;98184.38;4438698;32;20113;-83
2021/12/11 09:57:13;;;;;;;14.65;4.70;;;;;;;4.66;61.63;98176.44;4438613;32;20198;-82
2021/12/11 09:59:43;;;;;;;12.02;3.92;;;;;;;4.73;61.51;98185.72;4438607;32;20157;-83
2021/12/11 10:02:17;;;;;;;11.73;4.07;;;;;;;4.89;60.53;98177.25;4438497;32;20124;-83
2021/12/11 10:04:59;;;;;;;13.15;4.80;;;;;;;4.71;61.32;98184.94;4425650;32;20149;-83
2021/12/11 10:07:30;;;;;;;13.15;4.85;;;;;;;4.70;61.56;98172.78;4438285;32;20128;-82
2021/12/11 10:10:16;;;;;;;13.02;4.40;;;;;;;4.85;61.13;98173.09;4471623;32;20072;-82
2021/12/11 10:12:47;;;;;;;12.98;4.30;;;;;;;4.62;61.86;98174.88;4470582;32;20156;-83
2021/12/11 10:15:29;;;;;;;13.88;4.90;;;;;;;4.61;62.22;98169.69;4471676;32;20126;-83
2021/12/11 10:18:13;;;;;;;13.45;4.50;;;;;;;4.60;62.15;98171.47;4471603;32;20096;-83
2021/12/11 10:20:53;;;;;;;13.13;4.82;;;;;;;4.51;62.13;98162.25;4457304;32;20157;-83
2021/12/11 10:23:22;;;;;;;14.40;5.05;;;;;;;4.55;62.50;98162.13;4457534;32;20118;-83
2021/12/11 10:25:49;;;;;;;15.23;4.72;;;;;;;4.30;63.24;98168.31;4471322;32;20195;-83
2021/12/11 10:28:18;;;;;;;12.88;4.60;;;;;;;4.64;62.26;98162.59;4470402;32;20431;-83
2021/12/11 10:30:48;;;;;;;12.45;4.53;;;;;;;4.77;62.00;98169.91;4471491;32;20413;-83
2021/12/11 10:33:15;;;;;;;12.98;4.75;;;;;;;4.58;62.61;98168.06;4470233;32;20093;-83
2021/12/11 10:35:44;;;;;;;11.75;4.12;;;;;;;4.82;62.16;98171.44;4471390;32;20161;-83
2021/12/11 10:38:10;;;;;;;14.40;5.55;;;;;;;4.91;62.00;98175.44;4471338;32;20105;-83
2021/12/11 10:40:41;;;;;;;13.95;4.93;;;;;;;4.68;62.26;98184.19;4470191;32;20459;-83
2021/12/11 10:43:17;;;;;;;14.85;4.97;;;;;;;4.79;61.50;98181.13;4469614;32;20144;-83
2021/12/11 10:45:44;;;;;;;13.85;4.70;;;;;;;4.63;62.07;98184.38;4471018;32;20140;-83
2021/12/11 10:48:12;;;;;;;13.62;4.82;;;;;;;4.66;62.00;98186.03;4471279;32;20119;-83
2021/12/11 10:50:49;;;;;;;14.77;5.03;;;;;;;4.61;62.48;98183.59;4471203;32;20115;-83
2021/12/11 10:53:19;;;;;;;15.13;4.97;;;;;;;4.59;62.66;98182.81;4470115;32;20089;-83
2021/12/11 10:55:46;;;;;;;13.55;5.78;;;;;;;4.77;62.28;98182.97;4470047;32;20154;-83
2021/12/11 10:58:19;;;;;;;15.10;5.28;;;;;;;5.03;61.55;98181.91;4471374;32;20154;-83
2021/12/11 11:00:54;;;;;;;14.23;5.32;;;;;;;5.17;61.27;98171.72;4471225;32;20144;-83
2021/12/11 11:03:21;;;;;;;13.10;5.10;;;;;;;5.06;61.12;98163.47;4470064;32;20111;-83
2021/12/11 11:05:48;;;;;;;14.20;5.37;;;;;;;5.08;61.22;98166.88;4470790;32;20185;-83
2021/12/11 11:08:13;;;;;;;13.85;5.40;;;;;;;4.97;61.54;98172.56;4471205;32;20111;-82
2021/12/11 11:10:47;;;;;;;12.43;5.00;;;;;;;5.10;60.96;98162.47;4471081;32;20410;-83
2021/12/11 11:13:14;;;;;;;16.05;5.53;;;;;;;5.24;60.58;98165.31;4471080;32;20468;-82
2021/12/11 11:15:41;;;;;;;15.13;5.57;;;;;;;4.66;62.54;98171.22;4471151;32;20440;-82
2021/12/11 11:18:09;;;;;;;14.70;6.15;;;;;;;5.03;nan;98163.63;4469841;32;20096;-82
2021/12/11 11:20:40;;;;;;;13.90;5.35;;;;;;;4.88;62.10;98173.78;4470926;32;20089;-82
2021/12/11 11:23:07;;;;;;;14.55;5.25;;;;;;;4.81;62.24;98169.75;4471017;32;20073;-82
2021/12/11 11:25:36;;;;;;;14.57;5.75;;;;;;;5.06;61.45;98163.47;4469647;32;20109;-82
2021/12/11 11:28:07;;;;;;;14.87;5.50;;;;;;;5.07;61.41;98166.03;4470862;32;20089;-82
2021/12/11 11:30:39;;;;;;;13.73;5.57;;;;;;;5.04;61.30;98155.75;4469754;32;20115;-83
2021/12/11 11:33:07;;;;;;;15.88;5.47;;;;;;;5.00;61.58;98153.31;4471017;32;20392;-83
2021/12/11 11:35:35;;;;;;;14.27;5.25;;;;;;;4.89;62.35;98152.00;4469677;32;20177;-82
2021/12/11 11:38:02;;;;;;;14.25;4.90;;;;;;;4.56;62.69;98143.81;4470706;32;20084;-82
2021/12/11 11:40:32;;;;;;;16.27;5.80;;;;;;;4.86;62.48;98146.06;4470736;32;20144;-82
2021/12/11 11:42:58;;;;;;;15.25;5.55;;;;;;;4.74;62.62;98155.25;4469637;32;20116;-82
2021/12/11 11:45:25;;;;;;;15.52;5.10;;;;;;;4.66;63.25;98149.50;4469348;32;20097;-82
2021/12/11 11:47:54;;;;;;;14.40;5.57;;;;;;;4.82;62.72;98157.53;4470629;32;20403;-83
2021/12/11 11:50:23;;;;;;;16.50;5.72;;;;;;;4.75;62.85;98154.31;4470488;32;20114;-83
2021/12/11 11:52:48;;;;;;;14.27;5.60;;;;;;;4.49;63.61;98166.66;4469114;32;20149;-83
2021/12/11 11:55:19;;;;;;;15.50;5.47;;;;;;;4.93;62.80;98161.41;4471177;32;20081;-82
2021/12/11 11:57:48;;;;;;;14.40;5.62;;;;;;;4.96;62.31;98170.00;4472667;32;20219;-83
2021/12/11 12:00:22;;;;;;;16.73;5.82;;;;;;;4.87;62.73;98185.16;4471325;32;20080;-83